createdAt,value
2019-03-19T00:02:07.377Z,102917.84
2019-03-19T00:04:36.727Z,102917.41
2019-03-19T00:07:06.054Z,102911.78
2019-03-19T00:09:35.404Z,102916.98
2019-03-19T00:12:04.818Z,102905.70
2019-03-19T00:14:34.145Z,102909.17
2019-03-19T00:17:03.496Z,102913.08
2019-03-19T00:19:32.812Z,102915.68
2019-03-19T00:22:02.157Z,102919.58
2019-03-19T00:24:31.485Z,102917.00
2019-03-19T00:27:00.820Z,102924.81
2019-03-19T00:29:30.126Z,102922.64
2019-03-19T00:31:59.503Z,102919.60
2019-03-19T00:34:28.959Z,102924.38
2019-03-19T00:36:58.270Z,102928.24
2019-03-19T00:39:27.685Z,102918.30
2019-03-19T00:41:57.035Z,102922.64
2019-03-19T00:44:26.367Z,102927.41
2019-03-19T00:46:55.720Z,102929.14
2019-03-19T00:49:25.079Z,102932.61
2019-03-19T00:51:54.438Z,102936.05
2019-03-19T00:54:23.765Z,102939.08
2019-03-19T00:56:53.120Z,102937.34
2019-03-19T00:59:22.448Z,102937.78
2019-03-19T01:01:51.811Z,102940.39
2019-03-19T01:04:21.265Z,102939.08
2019-03-19T01:06:51.248Z,102939.52
2019-03-19T01:09:20.614Z,102942.55
2019-03-19T01:11:49.944Z,102940.39
2019-03-19T01:14:19.260Z,102944.72
2019-03-19T01:16:48.612Z,102942.13
2019-03-19T01:19:18.010Z,102933.45
2019-03-19T01:21:47.374Z,102939.52
2019-03-19T01:24:16.699Z,102940.82
2019-03-19T01:26:46.058Z,102940.39
2019-03-19T01:29:15.392Z,102930.42
2019-03-19T01:31:44.760Z,102936.92
2019-03-19T01:34:14.113Z,102932.58
2019-03-19T01:36:43.441Z,102930.84
2019-03-19T01:39:12.801Z,102937.34
2019-03-19T01:41:43.141Z,102933.04
2019-03-19T01:44:14.281Z,102931.30
2019-03-19T01:46:43.643Z,102935.20
2019-03-19T01:49:13.017Z,102939.53
2019-03-19T01:51:42.336Z,102938.27
2019-03-19T01:54:11.673Z,102942.14
2019-03-19T01:56:41.015Z,102945.63
2019-03-19T01:59:10.351Z,102940.42
2019-03-19T02:01:39.719Z,102944.35
2019-03-19T02:04:09.065Z,102941.75
2019-03-19T02:06:38.425Z,102940.45
2019-03-19T02:09:09.847Z,102935.68
2019-03-19T02:11:39.211Z,102932.21
2019-03-19T02:14:08.551Z,102934.41
2019-03-19T02:16:37.922Z,102939.14
2019-03-19T02:19:07.275Z,102943.52
2019-03-19T02:21:36.588Z,102936.55
2019-03-19T02:24:05.882Z,102929.64
2019-03-19T02:26:35.219Z,102934.41
2019-03-19T02:29:04.526Z,102927.91
2019-03-19T02:31:34.602Z,102930.94
2019-03-19T02:34:03.957Z,102930.94
2019-03-19T02:36:33.345Z,102923.56
2019-03-19T02:39:02.668Z,102922.27
2019-03-19T02:41:32.095Z,102923.14
2019-03-19T02:44:01.442Z,102916.64
2019-03-19T02:46:30.794Z,102920.53
2019-03-19T02:49:00.160Z,102913.17
2019-03-19T02:51:29.597Z,102913.59
2019-03-19T02:53:58.920Z,102921.40
2019-03-19T02:56:33.041Z,102922.70
2019-03-19T02:58:59.318Z,102917.94
2019-03-19T03:01:28.634Z,102919.23
2019-03-19T03:03:57.974Z,102921.84
2019-03-19T03:06:27.313Z,102919.67
2019-03-19T03:08:56.691Z,102918.37
2019-03-19T03:11:26.002Z,102917.07
2019-03-19T03:13:55.304Z,102920.53
2019-03-19T03:16:24.751Z,102916.64
2019-03-19T03:18:54.055Z,102921.84
2019-03-19T03:21:23.414Z,102919.23
2019-03-19T03:23:52.777Z,102920.53
2019-03-19T03:26:22.088Z,102921.41
2019-03-19T03:28:51.503Z,102920.53
2019-03-19T03:31:20.867Z,102912.73
2019-03-19T03:33:50.149Z,102913.59
2019-03-19T03:36:19.480Z,102914.90
2019-03-19T03:38:48.814Z,102908.40
2019-03-19T03:41:18.148Z,102906.69
2019-03-19T03:43:47.489Z,102908.40
2019-03-19T03:46:16.824Z,102906.23
2019-03-19T03:48:46.140Z,102904.92
2019-03-19T03:51:15.477Z,102912.73
2019-03-19T03:53:44.801Z,102906.69
2019-03-19T03:56:14.158Z,102907.13
2019-03-19T03:58:43.475Z,102906.69
2019-03-19T04:01:13.026Z,102910.12
2019-03-19T04:03:42.544Z,102905.39
2019-03-19T04:06:11.895Z,102907.55
2019-03-19T04:08:41.251Z,102907.98
2019-03-19T04:11:10.594Z,102910.16
2019-03-19T04:13:41.400Z,102918.39
2019-03-19T04:16:10.738Z,102922.73
2019-03-19T04:18:41.864Z,102925.33
2019-03-19T04:21:11.176Z,102924.45
2019-03-19T04:23:42.101Z,102923.59
2019-03-19T04:26:11.536Z,102926.20
2019-03-19T04:28:40.869Z,102927.91
2019-03-19T04:31:10.250Z,102929.20
2019-03-19T04:33:39.590Z,102930.52
2019-03-19T04:36:08.922Z,102927.47
2019-03-19T04:38:38.279Z,102934.40
2019-03-19T04:41:07.696Z,102934.40
2019-03-19T04:43:37.137Z,102936.14
2019-03-19T04:46:06.464Z,102937.44
2019-03-19T04:48:35.828Z,102946.55
2019-03-19T04:51:05.180Z,102936.14
2019-03-19T04:53:34.523Z,102945.67
2019-03-19T04:56:03.858Z,102944.80
2019-03-19T04:58:33.174Z,102947.84
2019-03-19T05:01:02.504Z,102947.83
2019-03-19T05:03:31.841Z,102953.03
2019-03-19T05:06:01.187Z,102948.30
2019-03-19T05:08:30.529Z,102947.00
2019-03-19T05:10:59.890Z,102958.70
2019-03-19T05:13:29.213Z,102953.93
2019-03-19T05:15:58.553Z,102956.53
2019-03-19T05:18:27.883Z,102960.00
2019-03-19T05:20:57.218Z,102959.53
2019-03-19T05:23:26.526Z,102957.80
2019-03-19T05:25:55.869Z,102963.00
2019-03-19T05:28:25.208Z,102957.80
2019-03-19T05:30:54.554Z,102959.55
2019-03-19T05:33:23.906Z,102963.84
2019-03-19T05:35:53.238Z,102965.61
2019-03-19T05:38:22.577Z,102964.31
2019-03-19T05:40:51.906Z,102965.15
2019-03-19T05:43:21.262Z,102964.29
2019-03-19T05:45:50.558Z,102959.09
2019-03-19T05:48:19.912Z,102956.05
2019-03-19T05:50:49.269Z,102955.16
2019-03-19T05:53:18.615Z,102956.05
2019-03-19T05:55:47.922Z,102953.88
2019-03-19T05:58:17.246Z,102957.78
2019-03-19T06:00:46.595Z,102959.09
2019-03-19T06:03:17.094Z,102971.22
2019-03-19T06:05:46.441Z,102970.81
2019-03-19T06:08:15.821Z,102974.25
2019-03-19T06:10:45.347Z,102980.34
2019-03-19T06:13:14.685Z,102976.45
2019-03-19T06:15:44.003Z,102980.34
2019-03-19T06:18:13.336Z,102982.51
2019-03-19T06:20:42.663Z,102990.31
2019-03-19T06:23:12.006Z,102987.28
2019-03-19T06:25:42.333Z,102988.55
2019-03-19T06:28:11.854Z,102993.35
2019-03-19T06:30:41.328Z,102995.08
2019-03-19T06:33:10.664Z,102989.45
2019-03-19T06:35:39.990Z,102990.75
2019-03-19T06:38:09.296Z,103002.86
2019-03-19T06:40:38.631Z,103013.72
2019-03-19T06:43:07.945Z,103011.12
2019-03-19T06:45:37.291Z,103009.82
2019-03-19T06:48:06.605Z,103013.72
2019-03-19T06:50:44.631Z,103019.76
2019-03-19T06:53:07.008Z,103018.89
2019-03-19T06:55:36.354Z,103020.20
2019-03-19T06:58:10.846Z,103028.44
2019-03-19T07:00:37.848Z,103029.28
2019-03-19T07:03:07.182Z,103031.45
2019-03-19T07:05:36.516Z,103026.25
2019-03-19T07:08:05.963Z,103035.77
2019-03-19T07:10:35.315Z,103031.43
2019-03-19T07:13:04.663Z,103038.78
2019-03-19T07:15:33.989Z,103040.95
2019-03-19T07:18:03.334Z,103039.66
2019-03-19T07:20:59.766Z,103042.66
2019-03-19T07:23:29.322Z,103043.11
2019-03-19T07:25:58.670Z,103039.62
2019-03-19T07:28:28.023Z,103048.70
2019-03-19T07:30:57.364Z,103045.24
2019-03-19T07:33:26.683Z,103045.65
2019-03-19T07:35:56.040Z,103049.10
2019-03-19T07:38:25.346Z,103052.98
2019-03-19T07:40:55.925Z,103056.00
2019-03-19T07:43:25.427Z,103047.31
2019-03-19T07:45:54.763Z,103052.92
2019-03-19T07:48:25.116Z,103052.04
2019-03-19T07:50:54.483Z,103058.52
2019-03-19T07:53:23.816Z,103051.56
2019-03-19T07:55:54.655Z,103052.84
2019-03-19T07:58:35.752Z,103056.30
2019-03-19T08:00:56.157Z,103049.30
2019-03-19T08:03:25.560Z,103055.80
2019-03-19T08:05:54.890Z,103056.20
2019-03-19T08:08:24.283Z,103057.05
2019-03-19T08:10:53.625Z,103057.89
2019-03-19T08:13:22.953Z,103057.90
2019-03-19T08:15:54.605Z,103066.58
2019-03-19T08:18:23.950Z,103065.68
2019-03-19T08:20:53.256Z,103079.11
2019-03-19T08:23:22.604Z,103081.28
2019-03-19T08:25:51.909Z,103078.20
2019-03-19T08:28:21.239Z,103084.69
2019-03-19T08:30:50.575Z,103082.52
2019-03-19T08:33:20.935Z,103095.09
2019-03-19T08:35:52.351Z,103088.11
2019-03-19T08:38:21.678Z,103085.92
2019-03-19T08:40:51.157Z,103093.70
2019-03-19T08:43:20.518Z,103084.57
2019-03-19T08:45:49.815Z,103090.19
2019-03-19T08:48:19.166Z,103097.52
2019-03-19T08:50:48.477Z,103090.55
2019-03-19T08:53:20.204Z,103090.48
2019-03-19T08:55:49.537Z,103092.64
2019-03-19T08:58:18.865Z,103096.48
2019-03-19T09:00:48.212Z,103095.20
2019-03-19T09:03:17.530Z,103102.55
2019-03-19T09:05:47.903Z,103104.67
2019-03-19T09:08:17.248Z,103100.70
2019-03-19T09:10:46.596Z,103104.15
2019-03-19T09:13:15.946Z,103107.56
2019-03-19T09:15:45.299Z,103111.41
2019-03-19T09:18:16.120Z,103111.78
2019-03-19T09:20:45.521Z,103115.20
2019-03-19T09:23:14.876Z,103117.38
2019-03-19T09:25:44.191Z,103114.30
2019-03-19T09:28:13.514Z,103127.34
2019-03-19T09:30:42.854Z,103134.33
2019-03-19T09:33:12.272Z,103137.34
2019-03-19T09:35:41.645Z,103136.84
2019-03-19T09:38:10.977Z,103143.80
2019-03-19T09:40:40.323Z,103149.38
2019-03-19T09:43:09.671Z,103156.27
2019-03-19T09:45:41.383Z,103156.64
2019-03-19T09:48:10.770Z,103160.49
2019-03-19T09:50:40.076Z,103163.50
2019-03-19T09:53:09.462Z,103165.14
2019-03-19T09:55:41.129Z,103168.55
2019-03-19T09:58:11.513Z,103167.66
2019-03-19T10:00:42.959Z,103165.87
2019-03-19T10:03:12.312Z,103174.11
2019-03-19T10:05:41.639Z,103173.20
2019-03-19T10:08:11.002Z,103177.95
2019-03-19T10:10:40.380Z,103178.72
2019-03-19T10:13:09.789Z,103186.01
2019-03-19T10:15:39.160Z,103190.80
2019-03-19T10:18:08.489Z,103185.06
2019-03-19T10:20:37.822Z,103192.82
2019-03-19T10:23:07.180Z,103188.87
2019-03-19T10:25:38.064Z,103192.31
2019-03-19T10:28:07.560Z,103182.70
2019-03-19T10:30:36.989Z,103183.61
2019-03-19T10:33:06.368Z,103183.61
2019-03-19T10:35:35.718Z,103177.12
2019-03-19T10:38:05.484Z,103183.64
2019-03-19T10:40:34.825Z,103171.53
2019-03-19T10:43:04.187Z,103179.80
2019-03-19T10:45:33.730Z,103188.51
2019-03-19T10:48:03.156Z,103190.75
2019-03-19T10:50:32.499Z,103184.19
2019-03-19T10:53:01.839Z,103195.91
2019-03-19T10:55:31.284Z,103187.23
2019-03-19T10:58:10.648Z,103183.76
2019-03-19T11:00:31.802Z,103189.37
2019-03-19T11:03:01.138Z,103186.73
2019-03-19T11:05:32.304Z,103185.82
2019-03-19T11:08:01.633Z,103175.81
2019-03-19T11:10:30.974Z,103173.13
2019-03-19T11:13:00.359Z,103181.83
2019-03-19T11:15:31.618Z,103185.74
2019-03-19T11:18:00.783Z,103171.81
2019-03-19T11:20:30.122Z,103183.57
2019-03-19T11:23:02.277Z,103194.45
2019-03-19T11:25:31.616Z,103203.12
2019-03-19T11:28:01.066Z,103205.29
2019-03-19T11:30:30.452Z,103207.91
2019-03-19T11:32:59.851Z,103215.38
2019-03-19T11:35:29.420Z,103216.21
2019-03-19T11:37:58.874Z,103216.21
2019-03-19T11:40:28.228Z,103217.48
2019-03-19T11:42:57.562Z,103217.41
2019-03-19T11:45:27.014Z,103214.23
2019-03-19T11:47:57.411Z,103225.47
2019-03-19T11:50:26.746Z,103227.61
2019-03-19T11:52:57.944Z,103225.79
2019-03-19T11:55:27.301Z,103240.43
2019-03-19T11:57:57.755Z,103242.05
2019-03-19T12:00:42.886Z,103245.02
2019-03-19T12:03:16.137Z,103245.02
2019-03-19T12:05:43.534Z,103232.98
2019-03-19T12:08:12.899Z,103249.89
2019-03-19T12:10:42.230Z,103249.53
2019-03-19T12:13:11.623Z,103257.86
2019-03-19T12:15:40.958Z,103265.02
2019-03-19T12:18:12.045Z,103265.02
2019-03-19T12:20:41.384Z,103260.52
2019-03-19T12:23:10.748Z,103251.72
2019-03-19T12:25:40.106Z,103249.37
2019-03-19T12:28:10.472Z,103254.50
2019-03-19T12:30:39.829Z,103249.48
2019-03-19T12:33:09.151Z,103250.98
2019-03-19T12:35:39.614Z,103250.98
2019-03-19T12:38:08.951Z,103250.98
2019-03-19T12:40:38.415Z,103237.90
2019-03-19T12:43:08.024Z,103240.86
2019-03-19T12:45:38.509Z,103253.34
2019-03-19T12:48:07.858Z,103253.34
2019-03-19T12:50:37.185Z,103237.94
2019-03-19T12:53:06.543Z,103238.73
2019-03-19T12:55:35.917Z,103238.59
2019-03-19T12:58:05.618Z,103238.59
2019-03-19T13:00:35.187Z,103223.94
2019-03-19T13:03:05.296Z,103226.08
2019-03-19T13:05:34.684Z,103226.08
2019-03-19T13:08:04.059Z,103226.55
2019-03-19T13:10:33.414Z,103226.55
2019-03-19T13:13:03.039Z,103220.94
2019-03-19T13:15:32.432Z,103223.88
2019-03-19T13:18:02.807Z,103223.88
2019-03-19T13:20:32.156Z,103218.63
2019-03-19T13:23:01.509Z,103211.59
2019-03-19T13:25:30.960Z,103216.37
2019-03-19T13:28:00.323Z,103213.21
2019-03-19T13:30:30.717Z,103220.47
2019-03-19T13:33:00.086Z,103215.59
2019-03-19T13:35:29.530Z,103208.55
2019-03-19T13:38:00.705Z,103211.12
2019-03-19T13:40:30.063Z,103213.55
2019-03-19T13:43:00.592Z,103197.02
2019-03-19T13:45:29.925Z,103198.02
2019-03-19T13:47:59.389Z,103212.97
2019-03-19T13:50:28.731Z,103201.56
2019-03-19T13:53:18.505Z,103194.38
2019-03-19T13:55:48.920Z,103194.38
2019-03-19T13:58:18.254Z,103185.41
2019-03-19T14:00:55.344Z,103185.41
2019-03-19T14:03:18.675Z,103194.35
2019-03-19T14:05:47.997Z,103197.38
2019-03-19T14:08:18.070Z,103193.75
2019-03-19T14:10:47.670Z,103198.31
2019-03-19T14:13:17.030Z,103205.62
2019-03-19T14:15:46.377Z,103200.17
2019-03-19T14:18:15.742Z,103203.41
2019-03-19T14:20:45.095Z,103203.97
2019-03-19T14:23:14.473Z,103208.45
2019-03-19T14:25:43.810Z,103197.27
2019-03-19T14:28:13.172Z,103186.05
2019-03-19T14:30:42.553Z,103199.86
2019-03-19T14:33:11.868Z,103199.86
2019-03-19T14:35:41.208Z,103190.39
2019-03-19T14:38:10.589Z,103184.38
2019-03-19T14:40:40.035Z,103193.00
2019-03-19T14:43:09.436Z,103204.67
2019-03-19T14:45:38.815Z,103185.98
2019-03-19T14:48:08.145Z,103176.05
2019-03-19T14:50:37.513Z,103176.05
2019-03-19T14:53:06.965Z,103176.42
2019-03-19T14:55:36.743Z,103168.14
2019-03-19T14:58:06.302Z,103152.44
2019-03-19T15:00:35.684Z,103140.54
2019-03-19T15:03:05.050Z,103146.81
2019-03-19T15:05:34.447Z,103122.92
2019-03-19T15:08:03.777Z,103111.24
2019-03-19T15:10:33.169Z,103111.24
2019-03-19T15:13:02.573Z,103124.02
2019-03-19T15:15:31.937Z,103117.84
2019-03-19T15:18:01.281Z,103119.61
2019-03-19T15:20:30.747Z,103119.61
2019-03-19T15:23:00.159Z,103124.56
2019-03-19T15:25:29.519Z,103114.75
2019-03-19T15:27:58.847Z,103113.79
2019-03-19T15:30:28.246Z,103125.64
2019-03-19T15:32:57.582Z,103108.17
2019-03-19T15:35:26.929Z,103108.17
2019-03-19T15:37:56.296Z,103107.58
2019-03-19T15:40:25.629Z,103108.33
2019-03-19T15:42:54.967Z,103104.73
2019-03-19T15:45:24.387Z,103105.20
2019-03-19T15:47:53.709Z,103093.69
2019-03-19T15:50:23.067Z,103098.24
2019-03-19T15:52:52.379Z,103107.14
2019-03-19T15:55:21.758Z,103102.45
2019-03-19T15:57:51.102Z,103103.41
2019-03-19T16:00:20.447Z,103094.52
2019-03-19T16:02:49.799Z,103104.25
2019-03-19T16:05:19.161Z,103111.86
2019-03-19T16:07:48.512Z,103102.14
2019-03-19T16:10:17.936Z,103101.52
2019-03-19T16:12:47.299Z,103120.77
2019-03-19T16:15:16.825Z,103117.05
2019-03-19T16:17:46.157Z,103120.63
2019-03-19T16:20:15.706Z,103117.30
2019-03-19T16:22:45.076Z,103126.14
2019-03-19T16:25:14.563Z,103129.69
2019-03-19T16:27:43.935Z,103129.69
2019-03-19T16:30:14.043Z,103145.56
2019-03-19T16:32:43.512Z,103146.10
2019-03-19T16:35:13.104Z,103146.10
2019-03-19T16:37:42.547Z,103160.49
2019-03-19T16:40:17.262Z,103173.09
2019-03-19T16:42:46.752Z,103190.70
2019-03-19T16:45:17.996Z,103199.00
2019-03-19T16:47:47.403Z,103199.00
2019-03-19T16:50:16.744Z,103212.60
2019-03-19T16:52:46.412Z,103210.91
2019-03-19T16:55:16.096Z,103211.83
2019-03-19T16:57:45.437Z,103214.06
2019-03-19T17:00:16.454Z,103211.49
2019-03-19T17:02:45.789Z,103218.57
2019-03-19T17:05:16.375Z,103223.90
2019-03-19T17:07:45.673Z,103230.48
2019-03-19T17:10:15.509Z,103240.56
2019-03-19T17:12:44.866Z,103238.03
2019-03-19T17:15:15.107Z,103238.03
2019-03-19T17:17:44.511Z,103246.75
2019-03-19T17:20:16.489Z,103244.70
2019-03-19T17:22:45.949Z,103244.75
2019-03-19T17:25:16.079Z,103256.09
2019-03-19T17:27:45.440Z,103260.05
2019-03-19T17:30:20.016Z,103256.65
2019-03-19T17:32:49.327Z,103257.61
2019-03-19T17:35:18.748Z,103269.41
2019-03-19T17:37:48.031Z,103269.41
2019-03-19T17:40:17.530Z,103280.34
2019-03-19T17:42:46.894Z,103287.36
2019-03-19T17:45:16.364Z,103287.87
2019-03-19T17:47:45.817Z,103284.42
2019-03-19T17:50:17.013Z,103292.73
2019-03-19T17:52:46.587Z,103295.86
2019-03-19T17:55:15.875Z,103298.98
2019-03-19T17:57:45.272Z,103298.98
2019-03-19T18:00:18.901Z,103303.77
2019-03-19T18:02:48.243Z,103301.27
2019-03-19T18:05:17.627Z,103311.72
2019-03-19T18:07:46.961Z,103334.43
2019-03-19T18:10:16.287Z,103340.55
2019-03-19T18:12:45.637Z,103338.01
2019-03-19T18:15:15.075Z,103348.86
2019-03-19T18:17:44.450Z,103348.86
2019-03-19T18:20:13.989Z,103348.05
2019-03-19T18:22:43.343Z,103362.91
2019-03-19T18:25:12.850Z,103362.91
2019-03-19T18:27:42.205Z,103365.55
2019-03-19T18:30:12.617Z,103373.41
2019-03-19T18:32:42.170Z,103373.88
2019-03-19T18:35:11.552Z,103371.73
2019-03-19T18:37:40.905Z,103364.37
2019-03-19T18:40:10.279Z,103372.66
2019-03-19T18:42:39.605Z,103381.01
2019-03-19T18:45:09.007Z,103381.01
2019-03-19T18:47:38.335Z,103380.20
2019-03-19T18:50:10.137Z,103379.78
2019-03-19T18:52:39.493Z,103368.47
2019-03-19T18:55:09.042Z,103371.98
2019-03-19T18:57:38.489Z,103367.66
2019-03-19T19:00:11.371Z,103363.34
2019-03-19T19:02:49.157Z,103362.88
2019-03-19T19:05:12.206Z,103356.41
2019-03-19T19:07:41.548Z,103354.63
2019-03-19T19:10:13.981Z,103357.25
2019-03-19T19:12:43.570Z,103361.13
2019-03-19T19:15:14.308Z,103369.83
2019-03-19T19:17:43.726Z,103372.41
2019-03-19T19:20:13.209Z,103371.57
2019-03-19T19:22:42.588Z,103375.48
2019-03-19T19:25:15.534Z,103369.42
2019-03-19T19:27:44.887Z,103372.03
2019-03-19T19:30:18.487Z,103375.08
2019-03-19T19:32:47.829Z,103378.12
2019-03-19T19:35:17.335Z,103371.59
2019-03-19T19:37:46.673Z,103371.59
2019-03-19T19:40:16.069Z,103371.17
2019-03-19T19:42:45.738Z,103372.00
2019-03-19T19:45:15.140Z,103371.58
2019-03-19T19:47:44.474Z,103375.48
2019-03-19T19:50:14.654Z,103379.37
2019-03-19T19:52:44.162Z,103372.85
2019-03-19T19:55:14.529Z,103383.73
2019-03-19T19:57:44.183Z,103381.98
2019-03-19T20:00:15.743Z,103388.08
2019-03-19T20:02:45.316Z,103382.86
2019-03-19T20:05:15.285Z,103384.16
2019-03-19T20:07:44.754Z,103384.16
2019-03-19T20:10:15.930Z,103393.30
2019-03-19T20:12:45.258Z,103396.78
2019-03-19T20:15:14.839Z,103403.27
2019-03-19T20:17:44.177Z,103403.27
2019-03-19T20:20:15.076Z,103411.53
2019-03-19T20:22:44.941Z,103403.73
2019-03-19T20:25:14.544Z,103406.34
2019-03-19T20:27:43.901Z,103408.08
2019-03-19T20:30:15.600Z,103413.30
2019-03-19T20:32:44.940Z,103413.77
2019-03-19T20:35:22.200Z,103411.59
2019-03-19T20:37:51.532Z,103408.55
2019-03-19T20:40:21.102Z,103408.55
2019-03-19T20:42:50.420Z,103415.94
2019-03-19T20:45:19.880Z,103415.94
2019-03-19T20:47:49.208Z,103408.56
2019-03-19T20:50:21.278Z,103413.81
2019-03-19T20:52:52.701Z,103404.67
2019-03-19T20:55:22.028Z,103404.67
2019-03-19T20:57:51.374Z,103414.68
2019-03-19T21:00:20.713Z,103422.07
2019-03-19T21:02:50.191Z,103407.75
2019-03-19T21:05:19.584Z,103410.36
2019-03-19T21:07:48.897Z,103399.48
2019-03-19T21:10:19.029Z,103399.48
2019-03-19T21:12:48.614Z,103403.85
2019-03-19T21:15:19.581Z,103405.16
2019-03-19T21:17:49.252Z,103403.88
2019-03-19T21:20:18.590Z,103402.14
2019-03-19T21:22:47.933Z,103399.52
2019-03-19T21:25:17.285Z,103405.20
2019-03-19T21:27:46.798Z,103408.66
2019-03-19T21:30:16.732Z,103422.16
2019-03-19T21:32:46.099Z,103422.16
2019-03-19T21:35:17.003Z,103419.14
2019-03-19T21:37:46.349Z,103420.86
2019-03-19T21:40:15.762Z,103426.99
2019-03-19T21:42:45.865Z,103428.70
2019-03-19T21:45:15.544Z,103428.70
2019-03-19T21:47:44.865Z,103428.70
2019-03-19T21:50:14.918Z,103436.97
2019-03-19T21:52:44.479Z,103446.10
2019-03-19T21:55:16.620Z,103446.10
2019-03-19T21:57:45.973Z,103452.16
2019-03-19T22:00:16.454Z,103441.31
2019-03-19T22:02:45.805Z,103441.31
2019-03-19T22:05:16.939Z,103439.12
2019-03-19T22:07:46.409Z,103432.59
2019-03-19T22:10:15.825Z,103432.59
2019-03-19T22:12:45.132Z,103431.29
2019-03-19T22:15:16.165Z,103423.48
2019-03-19T22:17:45.494Z,103423.48
2019-03-19T22:20:15.460Z,103423.89
2019-03-19T22:22:44.992Z,103421.29
2019-03-19T22:25:14.400Z,103429.11
2019-03-19T22:27:43.786Z,103427.81
2019-03-19T22:30:14.799Z,103427.84
2019-03-19T22:32:44.225Z,103438.70
2019-03-19T22:35:13.643Z,103438.70
2019-03-19T22:37:43.185Z,103436.13
2019-03-19T22:40:13.570Z,103443.48
2019-03-19T22:42:43.037Z,103442.64
2019-03-19T22:45:13.732Z,103447.39
2019-03-19T22:47:43.090Z,103447.39
2019-03-19T22:50:13.119Z,103451.31
2019-03-19T22:52:42.460Z,103450.88
2019-03-19T22:55:11.844Z,103450.88
2019-03-19T22:57:43.210Z,103453.08
2019-03-19T23:00:31.819Z,103453.52
2019-03-19T23:03:02.246Z,103472.65
2019-03-19T23:05:31.565Z,103472.65
2019-03-19T23:08:00.910Z,103470.47
2019-03-19T23:10:30.221Z,103468.73
2019-03-19T23:12:59.574Z,103464.81
2019-03-19T23:15:29.013Z,103462.21
2019-03-19T23:18:00.625Z,103463.92
2019-03-19T23:20:29.971Z,103466.96
2019-03-19T23:22:59.332Z,103475.67
2019-03-19T23:25:28.692Z,103475.69
2019-03-19T23:27:58.042Z,103483.52
2019-03-19T23:30:27.492Z,103478.73
2019-03-19T23:32:56.815Z,103470.03
2019-03-19T23:35:26.144Z,103474.84
2019-03-19T23:37:55.537Z,103478.28
2019-03-19T23:40:24.880Z,103485.70
2019-03-19T23:42:54.258Z,103489.62
2019-03-19T23:45:24.533Z,103489.62
2019-03-19T23:47:53.882Z,103491.36
2019-03-19T23:50:23.226Z,103499.18
2019-03-19T23:52:52.559Z,103492.66
2019-03-19T23:55:23.957Z,103500.05
2019-03-19T23:57:53.295Z,103502.64
